Time;durP1;ratioP1;P1;durP2;ratioP2;P2;SDS_P1;SDS_P2;PMS_P1;PMS_P2;Temp;Humidity;BMP_temperature;BMP_pressure;BME280_temperature;BME280_humidity;BME280_pressure;Samples;Min_cycle;Max_cycle;Signal;HPM_P1;HPM_P2
2022/12/27 00:03:59;;;;;;;10.77;3.03;;;;;;;5.64;100.00;102082.88;10377856;28;20034;-67
2022/12/27 00:09:00;;;;;;;15.65;3.00;;;;;;;5.83;100.00;102084.75;10375375;28;20125;-68
2022/12/27 00:14:04;;;;;;;37.17;4.88;;;;;;;6.03;100.00;102085.69;10373360;28;20501;-68
2022/12/27 00:19:05;;;;;;;14.07;4.25;;;;;;;6.17;100.00;102076.38;10384697;28;20041;-67
2022/12/27 00:24:05;;;;;;;12.13;3.42;;;;;;;6.24;100.00;102075.66;10389314;28;20037;-69
2022/12/27 00:29:05;;;;;;;11.75;3.42;;;;;;;6.21;100.00;102081.34;10394024;28;20092;-70
2022/12/27 00:34:06;;;;;;;8.85;3.38;;;;;;;6.28;100.00;102084.31;10397402;28;20041;-69
2022/12/27 00:39:07;;;;;;;11.38;3.50;;;;;;;6.38;100.00;102087.00;10398090;28;20042;-68
2022/12/27 00:44:07;;;;;;;4.50;3.38;;;;;;;6.40;100.00;102098.47;10396400;28;20064;-67
2022/12/27 00:49:08;;;;;;;14.85;3.70;;;;;;;6.35;100.00;102119.56;10385172;28;20370;-68
2022/12/27 00:54:08;;;;;;;3.60;2.25;;;;;;;6.05;100.00;102119.53;10393669;28;20040;-67
2022/12/27 00:59:09;;;;;;;6.20;2.20;;;;;;;5.67;100.00;102105.94;10376309;28;20037;-67
2022/12/27 01:04:11;;;;;;;5.22;2.47;;;;;;;5.55;100.00;102113.22;10389328;28;20498;-67
2022/12/27 01:09:12;;;;;;;6.93;3.47;;;;;;;5.60;100.00;102114.53;10410328;28;20065;-67
2022/12/27 01:14:12;;;;;;;13.80;3.70;;;;;;;5.63;100.00;102118.78;10405903;28;20054;-67
2022/12/27 01:19:13;;;;;;;15.07;3.60;;;;;;;5.44;100.00;102116.88;10397522;28;20444;-67
2022/12/27 01:24:14;;;;;;;18.90;4.28;;;;;;;5.41;100.00;102133.25;10404120;28;20057;-66
2022/12/27 01:29:14;;;;;;;16.45;4.03;;;;;;;5.46;100.00;102146.31;10409741;28;20037;-66
2022/12/27 01:34:15;;;;;;;8.35;3.40;;;;;;;5.44;100.00;102151.78;10406344;28;20042;-68
2022/12/27 01:39:15;;;;;;;19.10;4.35;;;;;;;5.38;100.00;102146.94;10387822;28;20030;-67
2022/12/27 01:50:04;;;;;;;6.30;2.00;;;;;;;5.46;100.00;102155.22;10400864;28;20084;-67
2022/12/27 01:55:17;;;;;;;13.25;3.90;;;;;;;5.48;100.00;102157.75;10373227;28;20046;-66
2022/12/27 02:00:18;;;;;;;11.18;3.75;;;;;;;5.51;100.00;102174.44;10357971;28;20105;-66
2022/12/27 02:05:18;;;;;;;13.55;3.65;;;;;;;5.51;100.00;102181.66;10373744;28;20033;-66
2022/12/27 02:10:19;;;;;;;5.30;2.97;;;;;;;5.45;100.00;102191.09;10377731;28;20085;-65
2022/12/27 02:15:19;;;;;;;8.45;3.08;;;;;;;5.57;100.00;102189.19;10378116;28;20177;-65
2022/12/27 02:20:24;;;;;;;10.75;3.03;;;;;;;5.60;100.00;102194.31;10356860;28;20069;-66
2022/12/27 02:25:42;;;;;;;9.80;3.55;;;;;;;5.61;100.00;102190.63;10356525;28;20061;-65
2022/12/27 02:30:43;;;;;;;3.25;2.65;;;;;;;5.78;100.00;102202.59;10373675;28;20069;-66
2022/12/27 02:35:51;;;;;;;14.65;4.22;;;;;;;5.91;100.00;102214.00;10374440;28;20462;-66
2022/12/27 02:58:04;;;;;;;10.88;3.03;;;;;;;5.47;100.00;102223.22;10353717;28;20046;-67
2022/12/27 03:03:29;;;;;;;14.25;2.60;;;;;;;5.39;100.00;102223.00;10374188;28;20355;-67
2022/12/27 03:08:30;;;;;;;3.58;2.90;;;;;;;5.28;100.00;102227.47;10374241;28;20033;-67
2022/12/27 03:19:03;;;;;;;10.05;3.15;;;;;;;5.24;100.00;102239.47;10379501;28;20046;-67
2022/12/27 03:34:46;;;;;;;7.22;3.63;;;;;;;5.15;100.00;102250.97;10365678;28;20034;-67
2022/12/27 03:40:06;;;;;;;8.00;3.05;;;;;;;5.30;100.00;102247.00;10379862;28;20033;-67
2022/12/27 03:45:07;;;;;;;5.10;2.38;;;;;;;5.28;100.00;102248.09;10380381;28;20034;-67
2022/12/27 03:50:17;;;;;;;8.27;2.95;;;;;;;5.23;100.00;102245.81;10362699;28;20393;-67
2022/12/27 03:55:17;;;;;;;7.18;2.22;;;;;;;5.22;100.00;102254.84;10380483;28;20034;-67
2022/12/27 04:00:17;;;;;;;11.18;3.08;;;;;;;5.36;100.00;102251.84;10379081;28;20466;-67
2022/12/27 04:05:18;;;;;;;9.50;2.58;;;;;;;5.38;100.00;102253.56;10379710;28;20060;-68
2022/12/27 04:36:53;;;;;;;2.63;1.85;;;;;;;5.23;100.00;102261.94;10363326;28;20033;-67
2022/12/27 04:57:56;;;;;;;10.43;2.95;;;;;;;5.00;100.00;102266.53;10377810;28;20117;-68
2022/12/27 05:02:57;;;;;;;3.50;1.77;;;;;;;5.00;100.00;102274.59;10376439;28;20410;-68
2022/12/27 05:18:35;;;;;;;4.57;2.40;;;;;;;4.89;100.00;102280.84;10376022;28;20029;-67
2022/12/27 05:28:55;;;;;;;5.75;1.88;;;;;;;4.87;100.00;102296.22;10376271;28;20038;-67
2022/12/27 05:33:56;;;;;;;13.05;3.53;;;;;;;4.79;100.00;102295.16;10374917;28;20461;-67
2022/12/27 05:38:57;;;;;;;4.75;3.08;;;;;;;4.70;100.00;102296.75;10374266;28;20121;-67
2022/12/27 05:43:57;;;;;;;11.23;2.45;;;;;;;4.69;100.00;102310.28;10375197;28;20029;-67
2022/12/27 05:48:58;;;;;;;5.35;2.70;;;;;;;4.66;100.00;102323.00;10374277;28;20041;-67
2022/12/27 05:53:58;;;;;;;2.65;2.45;;;;;;;4.59;100.00;102316.38;10375387;28;20038;-67
2022/12/27 05:59:00;;;;;;;10.38;4.00;;;;;;;4.60;100.00;102314.59;10374901;28;20573;-67
2022/12/27 06:04:00;;;;;;;9.07;2.92;;;;;;;4.61;100.00;102313.59;10375447;28;20080;-67
2022/12/27 06:09:01;;;;;;;5.93;3.33;;;;;;;4.65;100.00;102305.16;10374565;28;20105;-68
2022/12/27 06:14:01;;;;;;;8.27;3.13;;;;;;;4.58;100.00;102319.22;10376599;28;20050;-67
2022/12/27 06:19:02;;;;;;;10.75;2.42;;;;;;;4.57;100.00;102330.94;10359753;28;20488;-67
2022/12/27 06:24:02;;;;;;;12.23;3.83;;;;;;;4.66;100.00;102340.91;10376352;28;20112;-67
2022/12/27 06:29:03;;;;;;;17.42;3.25;;;;;;;4.78;100.00;102326.50;10373508;28;20022;-68
2022/12/27 06:34:03;;;;;;;5.78;3.17;;;;;;;4.81;100.00;102328.06;10375122;28;20109;-68
2022/12/27 06:39:03;;;;;;;18.77;5.03;;;;;;;4.70;100.00;102347.75;10372415;28;20452;-68
2022/12/27 06:44:04;;;;;;;11.13;3.95;;;;;;;4.61;100.00;102345.78;10374273;28;20037;-67
2022/12/27 06:49:04;;;;;;;9.48;3.25;;;;;;;4.49;100.00;102352.97;10374356;28;20034;-67
2022/12/27 06:54:05;;;;;;;9.63;2.80;;;;;;;4.40;100.00;102348.34;10382433;28;20426;-67
2022/12/27 06:59:05;;;;;;;11.00;4.00;;;;;;;4.36;100.00;102346.88;10364826;28;20372;-67
2022/12/27 07:04:06;;;;;;;17.88;4.38;;;;;;;4.31;100.00;102349.94;10381582;28;20084;-67
2022/12/27 07:09:07;;;;;;;5.43;3.17;;;;;;;4.33;100.00;102353.34;10379923;28;20034;-66
2022/12/27 07:14:08;;;;;;;19.52;3.20;;;;;;;4.49;100.00;102347.63;10397376;28;20037;-67
2022/12/27 07:19:08;;;;;;;28.55;4.05;;;;;;;4.46;100.00;102355.91;10381610;28;20080;-67
2022/12/27 07:24:08;;;;;;;20.90;4.57;;;;;;;4.48;100.00;102369.22;10363283;28;20116;-67
2022/12/27 07:29:09;;;;;;;9.93;3.15;;;;;;;4.42;100.00;102375.91;10379561;28;20408;-68
2022/12/27 07:34:10;;;;;;;11.00;3.78;;;;;;;4.33;100.00;102384.69;10378838;28;20033;-67
2022/12/27 07:39:10;;;;;;;16.00;3.95;;;;;;;4.22;100.00;102385.53;10380369;28;20033;-67
2022/12/27 07:44:11;;;;;;;12.65;4.13;;;;;;;4.17;100.00;102385.88;10362641;28;20428;-67
2022/12/27 07:49:11;;;;;;;18.08;4.85;;;;;;;4.17;100.00;102379.66;10379977;28;20057;-67
2022/12/27 07:54:12;;;;;;;11.23;4.60;;;;;;;4.22;100.00;102371.28;10362135;28;20045;-67
2022/12/27 07:59:12;;;;;;;7.40;3.25;;;;;;;4.22;100.00;102369.44;10379588;28;20133;-67
2022/12/27 08:04:13;;;;;;;7.20;3.83;;;;;;;4.25;100.00;102371.03;10378949;28;20030;-67
2022/12/27 08:09:16;;;;;;;19.77;4.10;;;;;;;4.30;100.00;102382.22;10361383;28;20160;-67
2022/12/27 08:14:17;;;;;;;8.35;3.60;;;;;;;4.36;100.00;102389.81;10361846;28;20481;-67
2022/12/27 08:19:17;;;;;;;9.60;3.88;;;;;;;4.29;100.00;102384.06;10379376;28;20068;-67
2022/12/27 08:24:18;;;;;;;4.03;3.47;;;;;;;4.50;100.00;102386.91;10377901;28;20061;-67
2022/12/27 08:29:18;;;;;;;9.27;3.28;;;;;;;4.89;100.00;102382.84;10378214;28;20080;-67
2022/12/27 08:34:21;;;;;;;8.70;3.05;;;;;;;5.21;100.00;102378.53;10377542;28;20370;-67
2022/12/27 08:39:23;;;;;;;17.38;3.88;;;;;;;5.72;100.00;102388.59;10361304;28;20037;-68
2022/12/27 08:44:24;;;;;;;7.40;3.35;;;;;;;5.98;100.00;102381.88;10377235;28;20030;-67
2022/12/27 08:49:24;;;;;;;7.35;4.43;;;;;;;6.02;100.00;102387.84;10376953;28;20462;-67
2022/12/27 08:54:25;;;;;;;13.27;3.22;;;;;;;5.99;100.00;102377.34;10377448;28;20065;-68
2022/12/27 08:59:25;;;;;;;10.68;4.47;;;;;;;5.92;100.00;102382.38;10376703;28;20140;-67
2022/12/27 09:04:26;;;;;;;22.27;4.60;;;;;;;6.07;100.00;102396.38;10376256;28;20184;-67
2022/12/27 09:09:26;;;;;;;22.13;5.13;;;;;;;6.48;100.00;102394.66;10374600;28;20066;-67
2022/12/27 09:14:26;;;;;;;19.15;4.28;;;;;;;6.82;100.00;102403.28;10375193;28;20069;-67
2022/12/27 09:19:27;;;;;;;15.50;4.70;;;;;;;6.99;100.00;102404.50;10376399;28;20116;-67
2022/12/27 09:24:27;;;;;;;7.90;3.53;;;;;;;6.87;100.00;102406.44;10375693;28;20038;-67
2022/12/27 09:29:28;;;;;;;6.53;3.33;;;;;;;7.25;100.00;102395.91;10376835;28;20022;-67
2022/12/27 09:34:28;;;;;;;6.72;3.78;;;;;;;7.41;100.00;102396.22;10375702;28;20145;-67
2022/12/27 09:39:29;;;;;;;20.33;4.80;;;;;;;7.37;100.00;102395.63;10375843;28;20481;-67
2022/12/27 09:44:35;;;;;;;3.13;2.90;;;;;;;6.42;100.00;102406.78;10374512;28;20068;-67
2022/12/27 09:50:01;;;;;;;4.03;3.67;;;;;;;6.01;100.00;102399.59;10374706;28;20072;-67
2022/12/27 09:55:14;;;;;;;10.07;4.03;;;;;;;5.80;100.00;102419.19;10360904;28;20029;-67
2022/12/27 10:00:20;;;;;;;11.00;4.43;;;;;;;5.67;100.00;102426.59;10375353;28;20065;-67
2022/12/27 10:05:29;;;;;;;9.38;5.50;;;;;;;5.74;100.00;102427.81;10374377;28;20037;-68
2022/12/27 10:10:57;;;;;;;8.02;3.78;;;;;;;5.46;100.00;102417.66;10357925;28;20049;-68
2022/12/27 10:16:24;;;;;;;9.48;4.50;;;;;;;5.29;100.00;102410.97;10373594;28;20030;-68
2022/12/27 10:21:25;;;;;;;13.15;4.63;;;;;;;5.80;100.00;102411.13;10374100;28;20431;-68
2022/12/27 10:26:26;;;;;;;9.98;4.40;;;;;;;6.20;100.00;102409.63;10362337;28;20347;-68
2022/12/27 10:31:27;;;;;;;15.55;5.63;;;;;;;6.57;100.00;102415.34;10381852;28;20034;-68
2022/12/27 10:36:29;;;;;;;7.15;4.22;;;;;;;7.12;100.00;102417.72;10364997;28;20034;-68
2022/12/27 10:41:36;;;;;;;10.77;3.67;;;;;;;7.17;100.00;102404.66;10380496;28;20112;-69
2022/12/27 10:46:37;;;;;;;11.20;5.32;;;;;;;7.64;100.00;102394.09;10365754;28;20036;-69
2022/12/27 10:51:38;;;;;;;6.97;3.85;;;;;;;8.11;100.00;102378.88;10382858;28;20346;-69
2022/12/27 10:56:40;;;;;;;8.15;3.63;;;;;;;8.27;100.00;102385.50;10381489;28;20389;-69
2022/12/27 11:01:40;;;;;;;4.97;3.25;;;;;;;6.91;100.00;102401.63;10382925;28;20034;-69
2022/12/27 11:06:41;;;;;;;8.88;4.45;;;;;;;6.49;100.00;102393.66;10379829;28;20461;-69
2022/12/27 11:11:42;;;;;;;21.20;5.47;;;;;;;6.33;100.00;102406.75;10381575;28;20057;-68
2022/12/27 11:16:42;;;;;;;7.43;4.63;;;;;;;6.41;100.00;102410.44;10382999;28;20076;-68
2022/12/27 11:21:42;;;;;;;11.35;4.10;;;;;;;6.56;100.00;102399.34;10380407;28;20413;-68
2022/12/27 11:26:54;;;;;;;4.75;3.20;;;;;;;6.72;100.00;102402.41;10380368;28;20057;-69
2022/12/27 11:31:55;;;;;;;15.85;4.40;;;;;;;6.95;100.00;102406.56;10363469;28;20021;-69
2022/12/27 11:37:13;;;;;;;9.93;3.70;;;;;;;7.27;100.00;102400.13;10361575;28;20104;-68
2022/12/27 11:42:32;;;;;;;9.85;4.85;;;;;;;7.50;100.00;102381.91;10364103;28;20033;-71
2022/12/27 11:47:56;;;;;;;9.25;5.07;;;;;;;7.65;100.00;102388.53;10379804;28;20030;-68
2022/12/27 11:53:34;;;;;;;12.63;4.25;;;;;;;7.42;100.00;102387.13;10362865;28;20446;-69
2022/12/27 11:58:40;;;;;;;7.78;3.47;;;;;;;7.40;100.00;102384.59;10379498;28;20052;-68
2022/12/27 12:03:48;;;;;;;45.15;5.72;;;;;;;7.61;100.00;102384.44;10379704;28;20061;-68
2022/12/27 12:09:11;;;;;;;11.68;4.70;;;;;;;8.09;100.00;102361.97;10377420;28;20030;-68
2022/12/27 12:14:11;;;;;;;16.08;4.72;;;;;;;8.72;100.00;102358.66;10380489;28;20470;-68
2022/12/27 12:19:29;;;;;;;5.00;2.63;;;;;;;9.37;100.00;102330.66;10393928;28;20038;-69
2022/12/27 12:25:05;;;;;;;3.70;3.38;;;;;;;8.82;100.00;102323.50;10360881;28;20472;-68
2022/12/27 12:30:30;;;;;;;8.00;4.18;;;;;;;8.06;100.00;102316.38;10369466;28;20041;-68
2022/12/27 12:35:45;;;;;;;6.93;3.22;;;;;;;7.62;100.00;102309.78;10377607;28;20482;-68
2022/12/27 12:41:08;;;;;;;5.18;2.75;;;;;;;7.49;100.00;102295.75;10377538;28;20080;-68
2022/12/27 12:46:44;;;;;;;8.02;4.00;;;;;;;7.38;100.00;102299.47;10377523;28;20033;-68
2022/12/27 12:52:15;;;;;;;6.03;2.70;;;;;;;7.33;100.00;102282.88;10362339;28;20030;-68
2022/12/27 12:57:34;;;;;;;8.35;4.05;;;;;;;7.32;100.00;102279.31;10377426;28;20030;-68
2022/12/27 13:02:52;;;;;;;7.45;3.63;;;;;;;7.26;100.00;102268.28;10377370;28;20084;-68
2022/12/27 13:08:02;;;;;;;6.22;3.55;;;;;;;7.19;100.00;102266.13;10393053;28;20041;-68
2022/12/27 13:13:11;;;;;;;8.52;4.10;;;;;;;7.16;100.00;102252.94;10374588;28;20049;-68
2022/12/27 13:18:20;;;;;;;12.25;3.80;;;;;;;7.31;100.00;102248.00;10376505;28;20030;-68
2022/12/27 13:23:37;;;;;;;4.75;4.28;;;;;;;7.33;100.00;102231.66;10375752;28;20028;-71
2022/12/27 13:28:41;;;;;;;;;;;;;;;7.31;100.00;102222.91;10376120;28;20343;-68
2022/12/27 13:33:50;;;;;;;6.57;3.67;;;;;;;7.33;100.00;102223.59;10375784;28;20304;-69
2022/12/27 13:39:06;;;;;;;6.22;2.55;;;;;;;7.30;100.00;102207.69;10390819;28;20113;-68
2022/12/27 13:44:10;;;;;;;4.43;3.60;;;;;;;7.11;100.00;102195.09;10360186;28;20049;-68
2022/12/27 13:49:48;;;;;;;12.48;3.83;;;;;;;7.05;100.00;102193.84;10376146;28;20112;-69
2022/12/27 13:55:18;;;;;;;10.43;3.90;;;;;;;6.98;100.00;102188.16;10361445;28;20105;-69
2022/12/27 14:00:20;;;;;;;9.02;3.67;;;;;;;7.03;100.00;102184.22;10373513;28;20478;-68
2022/12/27 14:05:43;;;;;;;6.78;4.32;;;;;;;7.07;100.00;102186.47;10375484;28;20048;-68
2022/12/27 14:10:50;;;;;;;6.82;3.70;;;;;;;7.09;100.00;102179.09;10374717;28;20124;-69
2022/12/27 14:16:11;;;;;;;10.65;5.55;;;;;;;7.09;100.00;102176.41;10372988;28;20042;-68
2022/12/27 14:21:50;;;;;;;8.48;5.00;;;;;;;7.06;100.00;102165.91;10373646;28;20029;-68
2022/12/27 14:27:11;;;;;;;27.70;15.48;;;;;;;7.02;100.00;102171.72;10374562;28;20450;-68
2022/12/27 14:32:31;;;;;;;14.00;6.35;;;;;;;6.89;100.00;102151.34;10372716;28;20372;-68
2022/12/27 14:37:59;;;;;;;5.18;4.68;;;;;;;6.82;100.00;102150.19;10390250;28;20034;-68
2022/12/27 14:43:09;;;;;;;9.52;6.05;;;;;;;6.85;100.00;102144.50;10358786;28;20385;-68
2022/12/27 14:48:51;;;;;;;7.82;6.18;;;;;;;6.57;100.00;102140.81;10375483;28;20080;-68
2022/12/27 14:54:12;;;;;;;11.40;6.63;;;;;;;6.53;100.00;102153.72;10373895;28;20109;-68
2022/12/27 14:59:35;;;;;;;9.60;5.88;;;;;;;6.42;100.00;102150.31;10374554;28;20445;-68
2022/12/27 15:04:53;;;;;;;7.57;4.93;;;;;;;6.34;100.00;102144.78;10373627;28;20025;-69
2022/12/27 15:10:03;;;;;;;9.10;6.22;;;;;;;6.43;100.00;102149.31;10373746;28;20064;-68
2022/12/27 15:15:06;;;;;;;6.05;4.55;;;;;;;6.38;100.00;102155.13;10379767;28;20063;-70
2022/12/27 15:20:39;;;;;;;18.23;6.35;;;;;;;6.50;100.00;102155.84;10380447;28;20045;-71
2022/12/27 15:25:50;;;;;;;11.45;5.60;;;;;;;6.57;100.00;102145.38;10380253;28;20461;-69
2022/12/27 15:30:59;;;;;;;7.22;5.60;;;;;;;6.58;100.00;102142.56;10379863;28;20057;-69
2022/12/27 15:36:07;;;;;;;11.15;5.53;;;;;;;6.58;100.00;102137.16;10379848;28;20029;-68
2022/12/27 15:41:08;;;;;;;15.85;6.88;;;;;;;6.60;100.00;102128.94;10380235;28;20327;-68
2022/12/27 15:46:20;;;;;;;8.60;5.05;;;;;;;6.70;100.00;102138.72;10394984;28;20033;-68
2022/12/27 15:51:30;;;;;;;11.65;6.25;;;;;;;6.67;100.00;102130.94;10379647;28;20017;-68
2022/12/27 15:57:00;;;;;;;11.68;4.72;;;;;;;6.68;100.00;102137.16;10362478;28;20032;-68
2022/12/27 16:02:16;;;;;;;18.38;6.47;;;;;;;6.67;100.00;102139.00;10378078;28;20045;-68
2022/12/27 16:07:42;;;;;;;6.35;4.25;;;;;;;6.67;100.00;102138.16;10379610;28;20109;-68
2022/12/27 16:12:43;;;;;;;13.07;5.20;;;;;;;6.69;100.00;102131.63;10361984;28;20482;-68
2022/12/27 16:17:53;;;;;;;6.65;4.32;;;;;;;6.68;100.00;102131.78;10377839;28;20527;-68
2022/12/27 16:23:05;;;;;;;12.73;4.70;;;;;;;6.66;100.00;102114.91;10376961;28;20160;-68
2022/12/27 16:28:14;;;;;;;7.78;4.05;;;;;;;6.67;100.00;102112.09;10376092;28;20155;-68
2022/12/27 16:33:27;;;;;;;15.15;5.72;;;;;;;6.68;100.00;102100.31;10377778;28;20113;-68
2022/12/27 16:38:28;;;;;;;7.05;4.85;;;;;;;6.68;100.00;102091.41;10378225;28;20038;-68
2022/12/27 16:44:00;;;;;;;15.07;7.43;;;;;;;6.73;100.00;102073.84;10360557;28;20450;-68
2022/12/27 16:49:01;;;;;;;7.68;4.97;;;;;;;6.80;100.00;102075.97;10362594;28;20042;-68
2022/12/27 16:54:13;;;;;;;13.40;4.95;;;;;;;6.85;100.00;102057.50;10376547;28;20033;-68
2022/12/27 16:59:51;;;;;;;13.85;7.35;;;;;;;6.69;100.00;102061.63;10361856;28;20426;-68
2022/12/27 17:04:52;;;;;;;13.00;4.28;;;;;;;6.60;100.00;102058.97;10376509;28;20109;-68
2022/12/27 17:09:53;;;;;;;19.15;5.95;;;;;;;6.80;100.00;102059.81;10359158;28;20061;-67
2022/12/27 17:14:57;;;;;;;8.65;3.80;;;;;;;6.89;100.00;102058.91;10377071;28;20046;-68
2022/12/27 17:20:03;;;;;;;7.65;3.90;;;;;;;6.85;100.00;102057.50;10359828;28;20034;-68
2022/12/27 17:25:05;;;;;;;8.27;4.67;;;;;;;6.83;100.00;102035.25;10375605;28;20049;-68
2022/12/27 17:30:12;;;;;;;15.93;4.18;;;;;;;6.66;100.00;102032.31;10376812;28;20037;-68
2022/12/27 17:35:31;;;;;;;5.45;3.53;;;;;;;6.42;100.00;102023.88;10375686;28;20049;-68
2022/12/27 17:40:43;;;;;;;19.05;4.45;;;;;;;6.40;100.00;102015.94;10375737;28;20033;-68
2022/12/27 17:45:58;;;;;;;6.63;3.63;;;;;;;6.46;100.00;102017.19;10391938;28;20025;-68
2022/12/27 17:51:10;;;;;;;7.47;3.88;;;;;;;6.35;100.00;102003.88;10373708;28;20029;-68
2022/12/27 18:01:50;;;;;;;5.28;4.38;;;;;;;6.19;100.00;101996.38;10375554;28;20050;-68
2022/12/27 18:07:04;;;;;;;8.48;3.85;;;;;;;6.13;100.00;101988.91;10375044;28;20458;-68
2022/12/27 18:12:24;;;;;;;7.60;3.40;;;;;;;6.04;100.00;101988.75;10341761;28;20394;-68
2022/12/27 18:17:28;;;;;;;5.65;3.00;;;;;;;6.03;100.00;101970.06;10358547;28;20054;-68
2022/12/27 18:22:28;;;;;;;8.15;5.85;;;;;;;6.02;100.00;101957.63;10357996;28;20040;-68
2022/12/27 18:27:29;;;;;;;9.85;4.38;;;;;;;6.07;100.00;101955.38;10375143;28;20089;-68
2022/12/27 18:32:31;;;;;;;4.32;3.38;;;;;;;5.93;100.00;101945.88;10374718;28;20072;-68
2022/12/27 18:37:35;;;;;;;19.05;5.10;;;;;;;5.93;100.00;101948.56;10374353;28;20030;-68
2022/12/27 18:42:38;;;;;;;4.65;3.03;;;;;;;5.83;100.00;101939.63;10373575;28;20072;-68
2022/12/27 18:47:39;;;;;;;11.77;4.10;;;;;;;5.74;100.00;101938.63;10363308;28;20029;-68
2022/12/27 18:52:39;;;;;;;9.88;4.05;;;;;;;5.68;100.00;101939.19;10348442;28;20552;-68
2022/12/27 18:57:40;;;;;;;10.25;4.65;;;;;;;5.65;100.00;101922.47;10381339;28;20029;-68
2022/12/27 19:02:40;;;;;;;11.70;3.67;;;;;;;5.56;100.00;101924.19;10382582;28;20418;-68
2022/12/27 19:07:40;;;;;;;6.68;4.30;;;;;;;5.53;100.00;101913.72;10380882;28;20038;-68
2022/12/27 19:12:41;;;;;;;5.70;3.90;;;;;;;5.51;100.00;101896.88;10381144;28;20057;-68
2022/12/27 19:17:43;;;;;;;6.72;3.70;;;;;;;5.51;100.00;101889.66;10363649;28;20092;-68
2022/12/27 19:22:46;;;;;;;5.75;4.40;;;;;;;5.54;100.00;101867.91;10379895;28;20026;-69
2022/12/27 19:28:21;;;;;;;9.82;5.55;;;;;;;5.63;100.00;101871.56;10396623;28;20040;-68
2022/12/27 19:33:26;;;;;;;7.78;4.07;;;;;;;5.71;100.00;101860.09;10364289;28;20034;-69
2022/12/27 19:38:27;;;;;;;11.20;5.30;;;;;;;5.78;100.00;101859.41;10363538;28;20036;-68
2022/12/27 19:43:33;;;;;;;16.17;5.05;;;;;;;5.81;100.00;101853.75;10362437;28;20057;-68
2022/12/27 19:48:33;;;;;;;10.00;4.75;;;;;;;5.83;100.00;101837.47;10363555;28;20056;-68
2022/12/27 19:53:37;;;;;;;10.85;4.40;;;;;;;5.87;100.00;101841.59;10378951;28;20034;-68
2022/12/27 19:58:38;;;;;;;16.75;4.32;;;;;;;5.90;100.00;101797.41;10361563;28;20030;-68
2022/12/27 20:03:38;;;;;;;6.95;4.40;;;;;;;5.89;100.00;101780.44;10380022;28;20030;-68
2022/12/27 20:08:46;;;;;;;10.43;4.65;;;;;;;5.91;100.00;101799.13;10378111;28;20482;-68
2022/12/27 20:13:47;;;;;;;12.82;4.50;;;;;;;5.91;100.00;101783.84;10380234;28;20045;-68
2022/12/27 20:18:47;;;;;;;9.75;4.93;;;;;;;5.99;100.00;101778.59;10379893;28;20053;-68
2022/12/27 20:23:48;;;;;;;11.40;4.80;;;;;;;5.97;100.00;101774.41;10378618;28;20037;-68
2022/12/27 20:28:49;;;;;;;8.50;3.83;;;;;;;5.96;100.00;101770.84;10377732;28;20046;-68
2022/12/27 20:33:53;;;;;;;6.00;4.55;;;;;;;6.10;100.00;101772.22;10343646;28;20025;-68
2022/12/27 20:38:54;;;;;;;11.18;4.25;;;;;;;6.11;100.00;101744.31;10379545;28;20034;-67
2022/12/27 20:43:55;;;;;;;10.35;4.25;;;;;;;6.14;100.00;101757.47;10377783;28;20033;-68
2022/12/27 20:48:55;;;;;;;9.57;4.75;;;;;;;6.05;100.00;101745.75;10378335;28;20045;-68
2022/12/27 20:53:57;;;;;;;5.55;3.75;;;;;;;6.13;100.00;101753.09;10375518;28;20486;-72
2022/12/27 20:58:57;;;;;;;5.97;3.90;;;;;;;6.12;100.00;101737.94;10360226;28;20485;-69
2022/12/27 21:03:58;;;;;;;12.13;2.80;;;;;;;6.16;100.00;101728.59;10376008;28;20029;-68
2022/12/27 21:08:58;;;;;;;10.93;4.85;;;;;;;6.22;100.00;101722.63;10377208;28;20148;-68
2022/12/27 21:13:59;;;;;;;10.98;3.95;;;;;;;6.20;100.00;101713.88;10378158;28;20058;-68
2022/12/27 21:19:02;;;;;;;5.93;4.53;;;;;;;6.26;100.00;101713.28;10376083;28;20022;-68
2022/12/27 21:24:03;;;;;;;8.05;3.38;;;;;;;6.31;100.00;101698.50;10359602;28;20034;-68
2022/12/27 21:29:04;;;;;;;9.75;3.30;;;;;;;6.33;100.00;101710.81;10376014;28;20029;-68
2022/12/27 21:34:06;;;;;;;14.85;5.22;;;;;;;6.23;100.00;101702.81;10376001;28;20034;-68
2022/12/27 21:39:07;;;;;;;14.07;8.70;;;;;;;6.29;100.00;101702.22;10375328;28;20062;-67
2022/12/27 21:44:07;;;;;;;6.93;4.15;;;;;;;5.99;100.00;101697.09;10376075;28;20073;-66
2022/12/27 21:49:11;;;;;;;24.80;4.80;;;;;;;5.91;100.00;101680.84;10374168;28;20033;-67
2022/12/27 21:54:12;;;;;;;5.15;3.95;;;;;;;5.89;100.00;101666.72;10374179;28;20195;-66
2022/12/27 21:59:13;;;;;;;4.88;3.97;;;;;;;5.79;100.00;101667.59;10375275;28;20061;-70
2022/12/27 22:04:13;;;;;;;16.17;6.00;;;;;;;5.66;100.00;101652.78;10375644;28;20026;-66
2022/12/27 22:09:14;;;;;;;7.80;4.85;;;;;;;5.63;100.00;101666.53;10375323;28;20045;-67
2022/12/27 22:14:15;;;;;;;7.20;4.88;;;;;;;5.61;100.00;101645.16;10357371;28;20045;-67
2022/12/27 22:19:15;;;;;;;4.85;4.45;;;;;;;5.70;100.00;101630.84;10356993;28;20038;-66
2022/12/27 22:24:18;;;;;;;4.55;3.92;;;;;;;5.57;100.00;101606.16;10374125;28;20131;-66
2022/12/27 22:29:20;;;;;;;7.63;4.60;;;;;;;5.61;100.00;101588.72;10373327;28;20041;-66
2022/12/27 22:34:20;;;;;;;17.33;6.40;;;;;;;5.64;100.00;101576.84;10374454;28;20470;-66
2022/12/27 22:39:21;;;;;;;10.30;5.43;;;;;;;5.69;100.00;101567.34;10373864;28;20041;-68
2022/12/27 22:44:21;;;;;;;13.25;5.07;;;;;;;5.86;100.00;101571.06;10356224;28;20065;-66
2022/12/27 22:49:22;;;;;;;7.00;4.75;;;;;;;5.92;100.00;101553.50;10374101;28;20034;-66
2022/12/27 22:54:22;;;;;;;8.70;3.65;;;;;;;5.75;100.00;101547.94;10374647;28;20034;-67
2022/12/27 22:59:22;;;;;;;11.13;5.90;;;;;;;5.72;100.00;101542.88;10373995;28;20462;-66
2022/12/27 23:04:23;;;;;;;6.80;4.38;;;;;;;5.72;100.00;101529.44;10373731;28;20038;-70
2022/12/27 23:09:23;;;;;;;10.15;4.78;;;;;;;5.73;100.00;101512.31;10372903;28;20082;-68
2022/12/27 23:14:24;;;;;;;6.57;5.07;;;;;;;5.73;100.00;101506.94;10355468;28;20050;-66
2022/12/27 23:19:24;;;;;;;7.15;4.93;;;;;;;5.79;100.00;101494.75;10372896;28;20029;-67
2022/12/27 23:24:24;;;;;;;11.93;6.25;;;;;;;5.84;100.00;101489.78;10373529;28;20030;-67
2022/12/27 23:29:25;;;;;;;8.70;5.47;;;;;;;5.89;100.00;101479.38;10373917;28;20065;-67
2022/12/27 23:34:26;;;;;;;10.85;3.97;;;;;;;5.84;100.00;101454.81;10378128;28;20033;-68
2022/12/27 23:39:26;;;;;;;17.63;6.90;;;;;;;5.87;100.00;101434.84;10380869;28;20052;-67
2022/12/27 23:44:26;;;;;;;14.07;6.63;;;;;;;5.93;100.00;101436.94;10379820;28;20042;-67
2022/12/27 23:49:27;;;;;;;8.45;5.18;;;;;;;5.91;100.00;101406.69;10380601;28;20064;-67
2022/12/27 23:54:27;;;;;;;14.30;6.28;;;;;;;5.87;100.00;101389.16;10379993;28;20445;-67
2022/12/27 23:59:28;;;;;;;9.05;6.85;;;;;;;5.93;100.00;101362.53;10379877;28;20121;-67
